sensor_id;sensor_type;location;lat;lon;timestamp;P1;durP1;ratioP1;P2;durP2;ratioP2
18867;SDS011;9563;49.240;9.088;2023-07-09T04:00:28;6.30;;;3.83;;
18867;SDS011;9563;49.240;9.088;2023-07-09T04:02:55;6.13;;;3.35;;
18867;SDS011;9563;49.240;9.088;2023-07-09T04:05:23;6.18;;;3.53;;
18867;SDS011;9563;49.240;9.088;2023-07-09T04:07:49;8.60;;;3.67;;
18867;SDS011;9563;49.240;9.088;2023-07-09T04:10:16;7.50;;;3.67;;
18867;SDS011;9563;49.240;9.088;2023-07-09T04:12:44;8.27;;;3.35;;
18867;SDS011;9563;49.240;9.088;2023-07-09T04:15:11;6.95;;;4.00;;
18867;SDS011;9563;49.240;9.088;2023-07-09T04:17:40;6.65;;;3.90;;
18867;SDS011;9563;49.240;9.088;2023-07-09T04:20:07;7.50;;;3.80;;
18867;SDS011;9563;49.240;9.088;2023-07-09T04:22:35;10.38;;;4.13;;
18867;SDS011;9563;49.240;9.088;2023-07-09T04:25:02;7.18;;;3.80;;
18867;SDS011;9563;49.240;9.088;2023-07-09T04:27:31;7.40;;;3.85;;
18867;SDS011;9563;49.240;9.088;2023-07-09T04:29:59;7.85;;;3.60;;
18867;SDS011;9563;49.240;9.088;2023-07-09T04:32:26;7.45;;;4.18;;
18867;SDS011;9563;49.240;9.088;2023-07-09T04:34:54;8.30;;;4.32;;
18867;SDS011;9563;49.240;9.088;2023-07-09T04:37:21;9.00;;;4.13;;
18867;SDS011;9563;49.240;9.088;2023-07-09T04:39:48;8.95;;;3.97;;
18867;SDS011;9563;49.240;9.088;2023-07-09T04:42:15;7.18;;;3.85;;
18867;SDS011;9563;49.240;9.088;2023-07-09T04:44:43;8.05;;;4.15;;
18867;SDS011;9563;49.240;9.088;2023-07-09T04:47:11;7.68;;;4.00;;
18867;SDS011;9563;49.240;9.088;2023-07-09T04:49:38;5.43;;;3.40;;
18867;SDS011;9563;49.240;9.088;2023-07-09T04:52:07;6.80;;;3.92;;
18867;SDS011;9563;49.240;9.088;2023-07-09T04:54:36;8.93;;;3.88;;
18867;SDS011;9563;49.240;9.088;2023-07-09T04:57:06;6.68;;;3.60;;
18867;SDS011;9563;49.240;9.088;2023-07-09T04:59:33;5.78;;;3.65;;
18867;SDS011;9563;49.240;9.088;2023-07-09T05:01:59;7.07;;;3.78;;
18867;SDS011;9563;49.240;9.088;2023-07-09T05:04:26;6.30;;;3.30;;
18867;SDS011;9563;49.240;9.088;2023-07-09T05:06:53;5.57;;;3.55;;
18867;SDS011;9563;49.240;9.088;2023-07-09T05:09:21;6.45;;;4.13;;
18867;SDS011;9563;49.240;9.088;2023-07-09T05:11:48;8.20;;;4.18;;
18867;SDS011;9563;49.240;9.088;2023-07-09T05:14:18;7.18;;;3.72;;
18867;SDS011;9563;49.240;9.088;2023-07-09T05:16:45;8.05;;;4.47;;
18867;SDS011;9563;49.240;9.088;2023-07-09T05:19:12;5.78;;;3.50;;
18867;SDS011;9563;49.240;9.088;2023-07-09T05:21:39;7.55;;;4.30;;
18867;SDS011;9563;49.240;9.088;2023-07-09T05:24:07;7.65;;;4.18;;
18867;SDS011;9563;49.240;9.088;2023-07-09T05:26:35;6.03;;;3.85;;
18867;SDS011;9563;49.240;9.088;2023-07-09T05:29:02;6.88;;;3.88;;
18867;SDS011;9563;49.240;9.088;2023-07-09T05:31:30;7.25;;;4.25;;
18867;SDS011;9563;49.240;9.088;2023-07-09T05:33:58;8.82;;;4.40;;
18867;SDS011;9563;49.240;9.088;2023-07-09T05:36:25;10.23;;;4.05;;
18867;SDS011;9563;49.240;9.088;2023-07-09T05:38:53;9.82;;;4.72;;
18867;SDS011;9563;49.240;9.088;2023-07-09T05:41:21;7.85;;;3.83;;
18867;SDS011;9563;49.240;9.088;2023-07-09T05:43:50;8.02;;;3.70;;
18867;SDS011;9563;49.240;9.088;2023-07-09T05:46:18;8.93;;;4.10;;
18867;SDS011;9563;49.240;9.088;2023-07-09T05:48:45;8.57;;;4.35;;
18867;SDS011;9563;49.240;9.088;2023-07-09T05:51:12;7.07;;;3.80;;
18867;SDS011;9563;49.240;9.088;2023-07-09T05:53:39;11.05;;;4.30;;
18867;SDS011;9563;49.240;9.088;2023-07-09T05:56:06;11.45;;;4.25;;
18867;SDS011;9563;49.240;9.088;2023-07-09T05:58:34;6.07;;;3.90;;
18867;SDS011;9563;49.240;9.088;2023-07-09T06:01:02;7.82;;;4.07;;
18867;SDS011;9563;49.240;9.088;2023-07-09T06:03:29;5.85;;;3.60;;
18867;SDS011;9563;49.240;9.088;2023-07-09T06:05:57;6.97;;;4.15;;
18867;SDS011;9563;49.240;9.088;2023-07-09T06:08:25;6.43;;;3.47;;
18867;SDS011;9563;49.240;9.088;2023-07-09T06:10:52;7.57;;;4.43;;
18867;SDS011;9563;49.240;9.088;2023-07-09T06:13:20;6.40;;;4.07;;
18867;SDS011;9563;49.240;9.088;2023-07-09T06:15:48;7.50;;;4.30;;
18867;SDS011;9563;49.240;9.088;2023-07-09T06:18:29;7.80;;;3.63;;
18867;SDS011;9563;49.240;9.088;2023-07-09T06:20:57;5.32;;;3.58;;
18867;SDS011;9563;49.240;9.088;2023-07-09T06:23:25;7.90;;;3.65;;
18867;SDS011;9563;49.240;9.088;2023-07-09T06:25:52;6.38;;;3.55;;
18867;SDS011;9563;49.240;9.088;2023-07-09T06:28:20;9.32;;;4.22;;
18867;SDS011;9563;49.240;9.088;2023-07-09T06:30:48;7.95;;;3.92;;
18867;SDS011;9563;49.240;9.088;2023-07-09T06:33:15;12.50;;;4.10;;
18867;SDS011;9563;49.240;9.088;2023-07-09T06:35:58;5.93;;;3.65;;
18867;SDS011;9563;49.240;9.088;2023-07-09T06:38:26;7.05;;;3.50;;
18867;SDS011;9563;49.240;9.088;2023-07-09T06:40:54;6.65;;;3.42;;
18867;SDS011;9563;49.240;9.088;2023-07-09T06:43:21;6.00;;;3.22;;
18867;SDS011;9563;49.240;9.088;2023-07-09T06:45:48;10.65;;;4.32;;
18867;SDS011;9563;49.240;9.088;2023-07-09T06:48:18;21.75;;;3.95;;
18867;SDS011;9563;49.240;9.088;2023-07-09T06:50:46;7.88;;;3.63;;
18867;SDS011;9563;49.240;9.088;2023-07-09T06:53:14;7.68;;;4.00;;
18867;SDS011;9563;49.240;9.088;2023-07-09T06:55:41;5.93;;;3.50;;
18867;SDS011;9563;49.240;9.088;2023-07-09T06:58:08;7.88;;;4.47;;
18867;SDS011;9563;49.240;9.088;2023-07-09T07:00:35;10.20;;;4.50;;
18867;SDS011;9563;49.240;9.088;2023-07-09T07:03:03;7.53;;;4.05;;
18867;SDS011;9563;49.240;9.088;2023-07-09T07:05:31;6.80;;;3.60;;
18867;SDS011;9563;49.240;9.088;2023-07-09T07:07:59;5.80;;;3.50;;
18867;SDS011;9563;49.240;9.088;2023-07-09T07:10:27;9.68;;;4.60;;
18867;SDS011;9563;49.240;9.088;2023-07-09T07:12:55;7.05;;;3.60;;
18867;SDS011;9563;49.240;9.088;2023-07-09T07:15:22;9.07;;;4.43;;
18867;SDS011;9563;49.240;9.088;2023-07-09T07:17:49;8.88;;;4.13;;
18867;SDS011;9563;49.240;9.088;2023-07-09T07:20:16;5.30;;;3.53;;
18867;SDS011;9563;49.240;9.088;2023-07-09T07:22:43;8.00;;;3.72;;
18867;SDS011;9563;49.240;9.088;2023-07-09T07:25:10;9.38;;;4.10;;
18867;SDS011;9563;49.240;9.088;2023-07-09T07:27:38;9.27;;;4.15;;
18867;SDS011;9563;49.240;9.088;2023-07-09T07:30:06;5.68;;;3.60;;
18867;SDS011;9563;49.240;9.088;2023-07-09T07:32:35;5.15;;;3.67;;
18867;SDS011;9563;49.240;9.088;2023-07-09T07:35:03;6.18;;;3.75;;
18867;SDS011;9563;49.240;9.088;2023-07-09T07:37:31;5.32;;;3.72;;
18867;SDS011;9563;49.240;9.088;2023-07-09T07:39:58;6.60;;;4.10;;
18867;SDS011;9563;49.240;9.088;2023-07-09T07:42:25;8.15;;;3.88;;
18867;SDS011;9563;49.240;9.088;2023-07-09T07:44:53;5.47;;;3.28;;
18867;SDS011;9563;49.240;9.088;2023-07-09T07:47:20;6.57;;;4.10;;
18867;SDS011;9563;49.240;9.088;2023-07-09T07:49:47;6.05;;;3.88;;
18867;SDS011;9563;49.240;9.088;2023-07-09T07:52:16;6.43;;;3.50;;
18867;SDS011;9563;49.240;9.088;2023-07-09T07:54:43;4.85;;;3.70;;
18867;SDS011;9563;49.240;9.088;2023-07-09T07:57:10;6.55;;;4.00;;
18867;SDS011;9563;49.240;9.088;2023-07-09T07:59:37;6.65;;;3.35;;
18867;SDS011;9563;49.240;9.088;2023-07-09T08:02:10;6.72;;;3.75;;
18867;SDS011;9563;49.240;9.088;2023-07-09T08:04:39;4.97;;;3.60;;
18867;SDS011;9563;49.240;9.088;2023-07-09T08:07:07;8.18;;;3.53;;
18867;SDS011;9563;49.240;9.088;2023-07-09T08:09:34;5.97;;;3.85;;
18867;SDS011;9563;49.240;9.088;2023-07-09T08:12:01;7.32;;;3.75;;
18867;SDS011;9563;49.240;9.088;2023-07-09T08:14:34;5.75;;;3.75;;
18867;SDS011;9563;49.240;9.088;2023-07-09T08:17:01;6.60;;;3.42;;
18867;SDS011;9563;49.240;9.088;2023-07-09T08:19:30;6.05;;;3.60;;
18867;SDS011;9563;49.240;9.088;2023-07-09T08:21:57;10.73;;;3.25;;
18867;SDS011;9563;49.240;9.088;2023-07-09T08:24:24;8.57;;;3.28;;
18867;SDS011;9563;49.240;9.088;2023-07-09T08:26:51;5.68;;;3.65;;
18867;SDS011;9563;49.240;9.088;2023-07-09T08:29:18;7.85;;;3.30;;
18867;SDS011;9563;49.240;9.088;2023-07-09T08:31:45;4.65;;;3.42;;
18867;SDS011;9563;49.240;9.088;2023-07-09T08:34:14;9.27;;;4.10;;
18867;SDS011;9563;49.240;9.088;2023-07-09T08:36:42;7.03;;;3.60;;
18867;SDS011;9563;49.240;9.088;2023-07-09T08:39:09;6.18;;;3.00;;
18867;SDS011;9563;49.240;9.088;2023-07-09T08:41:39;7.65;;;3.65;;
18867;SDS011;9563;49.240;9.088;2023-07-09T08:44:21;6.53;;;3.20;;
18867;SDS011;9563;49.240;9.088;2023-07-09T08:47:21;5.18;;;3.00;;
18867;SDS011;9563;49.240;9.088;2023-07-09T08:49:56;8.77;;;3.80;;
18867;SDS011;9563;49.240;9.088;2023-07-09T08:52:30;6.63;;;3.33;;
18867;SDS011;9563;49.240;9.088;2023-07-09T08:55:01;7.22;;;3.30;;
18867;SDS011;9563;49.240;9.088;2023-07-09T08:57:32;6.68;;;3.80;;
18867;SDS011;9563;49.240;9.088;2023-07-09T09:00:02;7.15;;;3.60;;
18867;SDS011;9563;49.240;9.088;2023-07-09T09:02:39;5.82;;;3.67;;
18867;SDS011;9563;49.240;9.088;2023-07-09T09:05:14;5.15;;;3.20;;
18867;SDS011;9563;49.240;9.088;2023-07-09T09:07:47;6.95;;;3.22;;
18867;SDS011;9563;49.240;9.088;2023-07-09T09:10:19;5.50;;;2.80;;
18867;SDS011;9563;49.240;9.088;2023-07-09T09:12:56;4.85;;;2.70;;
18867;SDS011;9563;49.240;9.088;2023-07-09T09:15:31;5.97;;;3.33;;
18867;SDS011;9563;49.240;9.088;2023-07-09T09:18:07;5.18;;;3.58;;
18867;SDS011;9563;49.240;9.088;2023-07-09T09:20:43;4.30;;;3.10;;
18867;SDS011;9563;49.240;9.088;2023-07-09T09:23:15;8.65;;;3.03;;
18867;SDS011;9563;49.240;9.088;2023-07-09T09:25:42;5.53;;;3.22;;
18867;SDS011;9563;49.240;9.088;2023-07-09T09:28:13;5.85;;;2.65;;
18867;SDS011;9563;49.240;9.088;2023-07-09T09:30:40;4.70;;;2.85;;
18867;SDS011;9563;49.240;9.088;2023-07-09T09:33:07;5.65;;;2.95;;
18867;SDS011;9563;49.240;9.088;2023-07-09T09:35:37;5.35;;;2.83;;
18867;SDS011;9563;49.240;9.088;2023-07-09T09:38:09;5.00;;;2.83;;
18867;SDS011;9563;49.240;9.088;2023-07-09T09:40:39;4.60;;;3.00;;
18867;SDS011;9563;49.240;9.088;2023-07-09T09:43:09;6.97;;;2.80;;
18867;SDS011;9563;49.240;9.088;2023-07-09T09:45:40;9.32;;;3.13;;
18867;SDS011;9563;49.240;9.088;2023-07-09T09:48:10;6.30;;;2.97;;
18867;SDS011;9563;49.240;9.088;2023-07-09T09:50:40;4.20;;;2.75;;
18867;SDS011;9563;49.240;9.088;2023-07-09T09:53:08;5.38;;;2.70;;
18867;SDS011;9563;49.240;9.088;2023-07-09T09:55:37;9.25;;;3.17;;
18867;SDS011;9563;49.240;9.088;2023-07-09T09:58:10;4.82;;;2.75;;
18867;SDS011;9563;49.240;9.088;2023-07-09T10:00:39;3.85;;;2.80;;
18867;SDS011;9563;49.240;9.088;2023-07-09T10:03:06;6.07;;;2.63;;
18867;SDS011;9563;49.240;9.088;2023-07-09T10:05:34;4.35;;;2.72;;
18867;SDS011;9563;49.240;9.088;2023-07-09T10:08:08;7.00;;;2.88;;
18867;SDS011;9563;49.240;9.088;2023-07-09T10:10:42;6.68;;;2.92;;
18867;SDS011;9563;49.240;9.088;2023-07-09T10:13:14;4.93;;;3.00;;
18867;SDS011;9563;49.240;9.088;2023-07-09T10:15:51;4.78;;;2.72;;
18867;SDS011;9563;49.240;9.088;2023-07-09T10:18:33;4.78;;;3.10;;
18867;SDS011;9563;49.240;9.088;2023-07-09T10:21:09;5.15;;;3.08;;
18867;SDS011;9563;49.240;9.088;2023-07-09T10:23:43;3.42;;;2.45;;
18867;SDS011;9563;49.240;9.088;2023-07-09T10:26:21;4.25;;;2.70;;
18867;SDS011;9563;49.240;9.088;2023-07-09T10:29:07;4.20;;;2.60;;
18867;SDS011;9563;49.240;9.088;2023-07-09T10:31:54;3.80;;;2.60;;
18867;SDS011;9563;49.240;9.088;2023-07-09T10:34:28;4.05;;;2.53;;
18867;SDS011;9563;49.240;9.088;2023-07-09T10:37:15;5.05;;;2.53;;
18867;SDS011;9563;49.240;9.088;2023-07-09T10:40:02;5.43;;;2.90;;
18867;SDS011;9563;49.240;9.088;2023-07-09T10:42:35;6.18;;;2.95;;
18867;SDS011;9563;49.240;9.088;2023-07-09T10:45:08;4.40;;;2.40;;
18867;SDS011;9563;49.240;9.088;2023-07-09T10:47:38;4.30;;;2.78;;
18867;SDS011;9563;49.240;9.088;2023-07-09T10:50:12;8.27;;;2.78;;
18867;SDS011;9563;49.240;9.088;2023-07-09T10:52:46;4.97;;;2.53;;
18867;SDS011;9563;49.240;9.088;2023-07-09T10:55:17;4.70;;;3.00;;
18867;SDS011;9563;49.240;9.088;2023-07-09T10:57:54;5.22;;;2.80;;
18867;SDS011;9563;49.240;9.088;2023-07-09T11:00:25;6.95;;;2.97;;
18867;SDS011;9563;49.240;9.088;2023-07-09T11:03:02;5.43;;;2.90;;
18867;SDS011;9563;49.240;9.088;2023-07-09T11:05:31;5.72;;;2.55;;
18867;SDS011;9563;49.240;9.088;2023-07-09T11:08:00;4.93;;;2.70;;
18867;SDS011;9563;49.240;9.088;2023-07-09T11:10:31;5.03;;;2.65;;
18867;SDS011;9563;49.240;9.088;2023-07-09T11:13:04;4.00;;;2.88;;
18867;SDS011;9563;49.240;9.088;2023-07-09T11:15:37;6.30;;;2.72;;
18867;SDS011;9563;49.240;9.088;2023-07-09T11:18:09;5.10;;;3.17;;
18867;SDS011;9563;49.240;9.088;2023-07-09T11:20:41;6.63;;;2.58;;
18867;SDS011;9563;49.240;9.088;2023-07-09T11:23:16;6.38;;;2.90;;
18867;SDS011;9563;49.240;9.088;2023-07-09T11:25:45;4.97;;;2.53;;
18867;SDS011;9563;49.240;9.088;2023-07-09T11:28:14;4.60;;;2.67;;
18867;SDS011;9563;49.240;9.088;2023-07-09T11:30:46;4.72;;;2.60;;
18867;SDS011;9563;49.240;9.088;2023-07-09T11:33:18;8.32;;;2.80;;
18867;SDS011;9563;49.240;9.088;2023-07-09T11:35:47;5.57;;;2.40;;
18867;SDS011;9563;49.240;9.088;2023-07-09T11:38:17;5.50;;;3.15;;
18867;SDS011;9563;49.240;9.088;2023-07-09T11:40:46;5.53;;;2.75;;
18867;SDS011;9563;49.240;9.088;2023-07-09T11:43:27;6.28;;;2.67;;
18867;SDS011;9563;49.240;9.088;2023-07-09T11:45:58;6.35;;;3.10;;
18867;SDS011;9563;49.240;9.088;2023-07-09T11:48:33;5.13;;;2.80;;
18867;SDS011;9563;49.240;9.088;2023-07-09T11:51:02;7.47;;;3.55;;
18867;SDS011;9563;49.240;9.088;2023-07-09T11:53:35;5.00;;;3.17;;
18867;SDS011;9563;49.240;9.088;2023-07-09T11:56:08;7.35;;;3.00;;
18867;SDS011;9563;49.240;9.088;2023-07-09T11:58:36;5.63;;;3.08;;
18867;SDS011;9563;49.240;9.088;2023-07-09T12:01:15;5.63;;;3.17;;
18867;SDS011;9563;49.240;9.088;2023-07-09T12:03:45;4.28;;;2.83;;
18867;SDS011;9563;49.240;9.088;2023-07-09T12:06:16;5.30;;;2.80;;
18867;SDS011;9563;49.240;9.088;2023-07-09T12:08:45;4.25;;;2.92;;
18867;SDS011;9563;49.240;9.088;2023-07-09T12:11:19;5.88;;;2.70;;
18867;SDS011;9563;49.240;9.088;2023-07-09T12:13:49;7.75;;;3.30;;
18867;SDS011;9563;49.240;9.088;2023-07-09T12:16:20;6.25;;;3.03;;
18867;SDS011;9563;49.240;9.088;2023-07-09T12:18:49;7.30;;;2.90;;
18867;SDS011;9563;49.240;9.088;2023-07-09T12:21:15;5.55;;;2.80;;
18867;SDS011;9563;49.240;9.088;2023-07-09T12:23:42;4.80;;;2.95;;
18867;SDS011;9563;49.240;9.088;2023-07-09T12:26:10;6.97;;;2.80;;
18867;SDS011;9563;49.240;9.088;2023-07-09T12:28:39;5.45;;;2.85;;
18867;SDS011;9563;49.240;9.088;2023-07-09T12:31:11;3.60;;;2.75;;
18867;SDS011;9563;49.240;9.088;2023-07-09T12:33:46;7.72;;;3.17;;
18867;SDS011;9563;49.240;9.088;2023-07-09T12:36:14;4.55;;;2.90;;
18867;SDS011;9563;49.240;9.088;2023-07-09T12:38:44;4.30;;;2.80;;
18867;SDS011;9563;49.240;9.088;2023-07-09T12:41:17;5.95;;;2.55;;
18867;SDS011;9563;49.240;9.088;2023-07-09T12:43:46;3.92;;;2.92;;
18867;SDS011;9563;49.240;9.088;2023-07-09T12:46:15;4.43;;;2.42;;
18867;SDS011;9563;49.240;9.088;2023-07-09T12:48:43;6.22;;;2.90;;
18867;SDS011;9563;49.240;9.088;2023-07-09T12:51:13;5.97;;;2.97;;
18867;SDS011;9563;49.240;9.088;2023-07-09T12:53:42;8.18;;;3.25;;
18867;SDS011;9563;49.240;9.088;2023-07-09T12:56:11;6.00;;;3.03;;
18867;SDS011;9563;49.240;9.088;2023-07-09T12:58:39;4.70;;;2.80;;
18867;SDS011;9563;49.240;9.088;2023-07-09T13:01:07;7.53;;;3.30;;
18867;SDS011;9563;49.240;9.088;2023-07-09T13:03:41;6.43;;;3.47;;
18867;SDS011;9563;49.240;9.088;2023-07-09T13:06:26;7.97;;;2.83;;
18867;SDS011;9563;49.240;9.088;2023-07-09T13:08:56;5.53;;;2.60;;
18867;SDS011;9563;49.240;9.088;2023-07-09T13:11:25;6.82;;;2.80;;
18867;SDS011;9563;49.240;9.088;2023-07-09T13:13:58;5.80;;;3.33;;
18867;SDS011;9563;49.240;9.088;2023-07-09T13:16:26;6.22;;;3.10;;
18867;SDS011;9563;49.240;9.088;2023-07-09T13:18:54;8.25;;;3.53;;
18867;SDS011;9563;49.240;9.088;2023-07-09T13:21:22;5.05;;;2.67;;
18867;SDS011;9563;49.240;9.088;2023-07-09T13:23:49;6.25;;;3.08;;
18867;SDS011;9563;49.240;9.088;2023-07-09T13:26:19;6.25;;;3.35;;
18867;SDS011;9563;49.240;9.088;2023-07-09T13:28:45;5.63;;;2.75;;
18867;SDS011;9563;49.240;9.088;2023-07-09T13:31:14;7.63;;;3.30;;
18867;SDS011;9563;49.240;9.088;2023-07-09T13:33:43;7.50;;;2.83;;
18867;SDS011;9563;49.240;9.088;2023-07-09T13:36:15;7.97;;;2.97;;
18867;SDS011;9563;49.240;9.088;2023-07-09T13:38:44;4.28;;;2.75;;
18867;SDS011;9563;49.240;9.088;2023-07-09T13:41:11;8.32;;;3.30;;
18867;SDS011;9563;49.240;9.088;2023-07-09T13:43:41;10.52;;;3.45;;
18867;SDS011;9563;49.240;9.088;2023-07-09T13:46:10;7.38;;;3.55;;
18867;SDS011;9563;49.240;9.088;2023-07-09T13:48:37;4.60;;;2.85;;
18867;SDS011;9563;49.240;9.088;2023-07-09T13:51:10;5.00;;;3.13;;
18867;SDS011;9563;49.240;9.088;2023-07-09T13:53:43;6.43;;;3.53;;
18867;SDS011;9563;49.240;9.088;2023-07-09T13:56:13;8.27;;;3.28;;
18867;SDS011;9563;49.240;9.088;2023-07-09T13:58:40;7.32;;;3.65;;
18867;SDS011;9563;49.240;9.088;2023-07-09T14:01:09;5.57;;;3.15;;
18867;SDS011;9563;49.240;9.088;2023-07-09T14:03:38;5.95;;;3.00;;
18867;SDS011;9563;49.240;9.088;2023-07-09T14:06:08;7.95;;;3.38;;
18867;SDS011;9563;49.240;9.088;2023-07-09T14:08:36;6.35;;;2.97;;
18867;SDS011;9563;49.240;9.088;2023-07-09T14:11:07;5.40;;;3.00;;
18867;SDS011;9563;49.240;9.088;2023-07-09T14:13:36;9.18;;;3.40;;
18867;SDS011;9563;49.240;9.088;2023-07-09T14:16:03;7.10;;;2.80;;
18867;SDS011;9563;49.240;9.088;2023-07-09T14:18:31;6.60;;;3.33;;
18867;SDS011;9563;49.240;9.088;2023-07-09T14:20:57;8.10;;;3.05;;
18867;SDS011;9563;49.240;9.088;2023-07-09T14:23:25;7.38;;;3.38;;
18867;SDS011;9563;49.240;9.088;2023-07-09T14:25:53;5.82;;;2.90;;
18867;SDS011;9563;49.240;9.088;2023-07-09T14:28:20;7.45;;;3.13;;
18867;SDS011;9563;49.240;9.088;2023-07-09T14:30:48;8.27;;;2.78;;
18867;SDS011;9563;49.240;9.088;2023-07-09T14:33:16;10.95;;;2.65;;
18867;SDS011;9563;49.240;9.088;2023-07-09T14:35:45;9.30;;;3.08;;
18867;SDS011;9563;49.240;9.088;2023-07-09T14:38:19;5.45;;;2.25;;
18867;SDS011;9563;49.240;9.088;2023-07-09T14:40:49;7.60;;;2.63;;
18867;SDS011;9563;49.240;9.088;2023-07-09T14:43:18;8.93;;;2.53;;
18867;SDS011;9563;49.240;9.088;2023-07-09T14:45:46;6.03;;;2.95;;
18867;SDS011;9563;49.240;9.088;2023-07-09T14:48:15;7.40;;;3.00;;
18867;SDS011;9563;49.240;9.088;2023-07-09T14:50:43;6.20;;;2.47;;
18867;SDS011;9563;49.240;9.088;2023-07-09T14:53:12;10.68;;;3.10;;
18867;SDS011;9563;49.240;9.088;2023-07-09T14:55:41;8.98;;;3.00;;
18867;SDS011;9563;49.240;9.088;2023-07-09T14:58:11;5.05;;;3.10;;
18867;SDS011;9563;49.240;9.088;2023-07-09T15:00:43;7.22;;;2.88;;
18867;SDS011;9563;49.240;9.088;2023-07-09T15:03:11;6.53;;;2.67;;
18867;SDS011;9563;49.240;9.088;2023-07-09T15:05:47;11.45;;;2.90;;
18867;SDS011;9563;49.240;9.088;2023-07-09T15:08:16;8.13;;;3.13;;
18867;SDS011;9563;49.240;9.088;2023-07-09T15:10:44;6.25;;;3.22;;
18867;SDS011;9563;49.240;9.088;2023-07-09T15:13:16;7.97;;;3.05;;
18867;SDS011;9563;49.240;9.088;2023-07-09T15:15:46;7.20;;;3.13;;
18867;SDS011;9563;49.240;9.088;2023-07-09T15:18:15;5.85;;;2.72;;
18867;SDS011;9563;49.240;9.088;2023-07-09T15:20:44;5.45;;;2.75;;
18867;SDS011;9563;49.240;9.088;2023-07-09T15:23:15;8.43;;;2.75;;
18867;SDS011;9563;49.240;9.088;2023-07-09T15:25:42;6.18;;;2.95;;
18867;SDS011;9563;49.240;9.088;2023-07-09T15:28:09;8.95;;;2.85;;
18867;SDS011;9563;49.240;9.088;2023-07-09T15:30:37;6.32;;;2.95;;
18867;SDS011;9563;49.240;9.088;2023-07-09T15:33:08;4.68;;;2.65;;
18867;SDS011;9563;49.240;9.088;2023-07-09T15:35:40;5.07;;;2.58;;
18867;SDS011;9563;49.240;9.088;2023-07-09T15:40:59;4.25;;;2.42;;
18867;SDS011;9563;49.240;9.088;2023-07-09T15:43:26;9.52;;;2.70;;
18867;SDS011;9563;49.240;9.088;2023-07-09T15:45:54;4.60;;;2.42;;
18867;SDS011;9563;49.240;9.088;2023-07-09T15:48:25;8.32;;;2.63;;
18867;SDS011;9563;49.240;9.088;2023-07-09T15:50:53;4.75;;;2.58;;
18867;SDS011;9563;49.240;9.088;2023-07-09T15:53:20;4.15;;;2.30;;
18867;SDS011;9563;49.240;9.088;2023-07-09T15:55:47;6.63;;;2.72;;
18867;SDS011;9563;49.240;9.088;2023-07-09T15:58:16;5.18;;;2.45;;
18867;SDS011;9563;49.240;9.088;2023-07-09T16:00:48;7.45;;;3.22;;
18867;SDS011;9563;49.240;9.088;2023-07-09T16:03:15;6.20;;;2.95;;
18867;SDS011;9563;49.240;9.088;2023-07-09T16:05:46;3.90;;;2.28;;
18867;SDS011;9563;49.240;9.088;2023-07-09T16:08:13;6.13;;;2.92;;
18867;SDS011;9563;49.240;9.088;2023-07-09T16:10:40;6.72;;;2.88;;
18867;SDS011;9563;49.240;9.088;2023-07-09T16:13:11;9.02;;;2.97;;
18867;SDS011;9563;49.240;9.088;2023-07-09T16:15:44;4.47;;;2.47;;
18867;SDS011;9563;49.240;9.088;2023-07-09T16:18:11;6.50;;;3.13;;
18867;SDS011;9563;49.240;9.088;2023-07-09T16:20:38;12.93;;;3.17;;
18867;SDS011;9563;49.240;9.088;2023-07-09T16:23:07;5.65;;;2.92;;
18867;SDS011;9563;49.240;9.088;2023-07-09T16:25:42;6.50;;;3.17;;
18867;SDS011;9563;49.240;9.088;2023-07-09T16:28:11;5.97;;;2.75;;
18867;SDS011;9563;49.240;9.088;2023-07-09T16:30:39;6.70;;;2.92;;
18867;SDS011;9563;49.240;9.088;2023-07-09T16:33:07;4.82;;;2.92;;
18867;SDS011;9563;49.240;9.088;2023-07-09T16:35:33;7.15;;;3.05;;
18867;SDS011;9563;49.240;9.088;2023-07-09T16:38:01;4.38;;;2.60;;
18867;SDS011;9563;49.240;9.088;2023-07-09T16:40:30;5.25;;;2.88;;
18867;SDS011;9563;49.240;9.088;2023-07-09T16:42:59;7.75;;;3.85;;
18867;SDS011;9563;49.240;9.088;2023-07-09T16:45:27;5.50;;;3.38;;
18867;SDS011;9563;49.240;9.088;2023-07-09T16:47:54;7.63;;;3.42;;
18867;SDS011;9563;49.240;9.088;2023-07-09T16:50:22;7.25;;;3.28;;
18867;SDS011;9563;49.240;9.088;2023-07-09T16:52:51;3.60;;;2.85;;
18867;SDS011;9563;49.240;9.088;2023-07-09T16:55:20;7.18;;;3.28;;
18867;SDS011;9563;49.240;9.088;2023-07-09T16:57:53;5.18;;;3.28;;
18867;SDS011;9563;49.240;9.088;2023-07-09T17:00:23;6.30;;;3.10;;
18867;SDS011;9563;49.240;9.088;2023-07-09T17:02:52;6.35;;;3.15;;
18867;SDS011;9563;49.240;9.088;2023-07-09T17:05:20;6.40;;;3.45;;
18867;SDS011;9563;49.240;9.088;2023-07-09T17:07:48;6.30;;;3.10;;
18867;SDS011;9563;49.240;9.088;2023-07-09T17:10:15;6.35;;;3.00;;
18867;SDS011;9563;49.240;9.088;2023-07-09T17:12:42;4.93;;;2.88;;
18867;SDS011;9563;49.240;9.088;2023-07-09T17:15:18;4.93;;;2.65;;
18867;SDS011;9563;49.240;9.088;2023-07-09T17:17:46;8.07;;;3.22;;
18867;SDS011;9563;49.240;9.088;2023-07-09T17:20:14;4.82;;;2.95;;
18867;SDS011;9563;49.240;9.088;2023-07-09T17:22:42;5.05;;;2.92;;
18867;SDS011;9563;49.240;9.088;2023-07-09T17:25:18;5.28;;;2.72;;
18867;SDS011;9563;49.240;9.088;2023-07-09T17:27:51;7.78;;;3.45;;
18867;SDS011;9563;49.240;9.088;2023-07-09T17:30:20;5.43;;;2.90;;
18867;SDS011;9563;49.240;9.088;2023-07-09T17:32:46;8.07;;;2.85;;
18867;SDS011;9563;49.240;9.088;2023-07-09T17:35:14;5.15;;;2.80;;
18867;SDS011;9563;49.240;9.088;2023-07-09T17:37:42;5.63;;;3.03;;
18867;SDS011;9563;49.240;9.088;2023-07-09T17:40:14;6.95;;;3.25;;
18867;SDS011;9563;49.240;9.088;2023-07-09T17:42:44;5.40;;;2.88;;
18867;SDS011;9563;49.240;9.088;2023-07-09T17:45:13;8.18;;;3.42;;
18867;SDS011;9563;49.240;9.088;2023-07-09T17:47:42;5.38;;;2.97;;
18867;SDS011;9563;49.240;9.088;2023-07-09T17:50:13;4.18;;;2.72;;
18867;SDS011;9563;49.240;9.088;2023-07-09T17:52:41;5.72;;;2.83;;
18867;SDS011;9563;49.240;9.088;2023-07-09T17:55:08;6.75;;;2.50;;
18867;SDS011;9563;49.240;9.088;2023-07-09T17:57:37;4.20;;;2.78;;
18867;SDS011;9563;49.240;9.088;2023-07-09T18:00:05;8.68;;;2.97;;
18867;SDS011;9563;49.240;9.088;2023-07-09T18:02:36;6.32;;;2.88;;
18867;SDS011;9563;49.240;9.088;2023-07-09T18:05:16;4.20;;;2.60;;
18867;SDS011;9563;49.240;9.088;2023-07-09T18:07:47;4.80;;;2.70;;
18867;SDS011;9563;49.240;9.088;2023-07-09T18:10:14;8.60;;;3.00;;
18867;SDS011;9563;49.240;9.088;2023-07-09T18:12:41;5.40;;;3.25;;
18867;SDS011;9563;49.240;9.088;2023-07-09T18:15:08;10.15;;;4.63;;
18867;SDS011;9563;49.240;9.088;2023-07-09T18:17:43;9.43;;;3.70;;
18867;SDS011;9563;49.240;9.088;2023-07-09T18:20:15;9.13;;;3.47;;
18867;SDS011;9563;49.240;9.088;2023-07-09T18:22:45;9.82;;;3.05;;
18867;SDS011;9563;49.240;9.088;2023-07-09T18:25:12;8.18;;;3.13;;
18867;SDS011;9563;49.240;9.088;2023-07-09T18:27:39;8.27;;;2.42;;
18867;SDS011;9563;49.240;9.088;2023-07-09T18:30:19;9.77;;;3.10;;
18867;SDS011;9563;49.240;9.088;2023-07-09T18:32:48;9.65;;;3.20;;
18867;SDS011;9563;49.240;9.088;2023-07-09T18:35:20;5.28;;;2.60;;
18867;SDS011;9563;49.240;9.088;2023-07-09T18:37:51;5.80;;;3.08;;
18867;SDS011;9563;49.240;9.088;2023-07-09T18:40:19;5.90;;;3.10;;
18867;SDS011;9563;49.240;9.088;2023-07-09T18:42:47;7.20;;;2.65;;
18867;SDS011;9563;49.240;9.088;2023-07-09T18:45:15;6.03;;;2.35;;
18867;SDS011;9563;49.240;9.088;2023-07-09T18:47:43;4.82;;;3.10;;
18867;SDS011;9563;49.240;9.088;2023-07-09T18:50:14;6.95;;;2.75;;
18867;SDS011;9563;49.240;9.088;2023-07-09T18:52:44;8.10;;;3.15;;
18867;SDS011;9563;49.240;9.088;2023-07-09T18:55:14;9.60;;;3.22;;
18867;SDS011;9563;49.240;9.088;2023-07-09T18:57:43;7.47;;;2.70;;
18867;SDS011;9563;49.240;9.088;2023-07-09T19:00:10;6.28;;;3.08;;
18867;SDS011;9563;49.240;9.088;2023-07-09T19:02:39;12.77;;;3.85;;
18867;SDS011;9563;49.240;9.088;2023-07-09T19:05:09;8.48;;;3.78;;
18867;SDS011;9563;49.240;9.088;2023-07-09T19:07:39;7.07;;;3.25;;
18867;SDS011;9563;49.240;9.088;2023-07-09T19:10:10;5.47;;;3.30;;
18867;SDS011;9563;49.240;9.088;2023-07-09T19:12:39;9.30;;;3.50;;
18867;SDS011;9563;49.240;9.088;2023-07-09T19:15:07;15.68;;;3.50;;
18867;SDS011;9563;49.240;9.088;2023-07-09T19:17:34;9.32;;;3.50;;